1996 DOUGLAS (1996211N13270)


On this page: IBTrACS data - Map and Plots - Positions - Intensities - Original source data

Summary

Start Jul 29
End Aug 6
Basin EP
LMI 115 kt
Sources hurdat_epa
jtwc_ep
atcf
In WMO? Yes
Previous storm 1996 KIRK (WP)
Previous in basin 1996 KIRK (WP)
Concurrent storms 1996 HERB (WP)
1996 JOY (WP)
1996 IAN (WP)
1996 KIRK (WP)
1996 DOUGLAS (EP)
1996 LISA (WP)
Next in basin Missing
Next storm 1996 LISA (WP)

top of page IBTrACS Data: File Access

top of page HURSAT Data: File Access

Image of storm

top of page Plots:

Map of storm track will not appear if FTP is down
Time series of cyclone Maximum Sustained Wind will not appear if FTP is down
Time series of cyclone Minimum Central Pressure will not appear if FTP is down

top of page Track Data:Position

hurdat_epa jtwc_ep atcf
Date Lat Lon Lat Lon Lat Lon
1996-07-29 00:00:00 13.0 -89.7 13.0 -89.7 13.0 -89.7
1996-07-29 06:00:00 13.1 -91.6 13.1 -91.6 13.1 -91.6
1996-07-29 12:00:00 13.3 -93.4 13.3 -93.4 13.3 -93.4
1996-07-29 18:00:00 13.4 -95.2 13.4 -95.2 13.4 -95.2
1996-07-30 00:00:00 13.6 -96.9 13.6 -96.9 13.6 -96.9
1996-07-30 06:00:00 13.9 -98.7 13.9 -98.7 13.9 -98.7
1996-07-30 12:00:00 14.3 -100.4 14.3 -100.4 14.3 -100.4
1996-07-30 18:00:00 14.9 -102.0 14.9 -102.0 14.9 -102.0
1996-07-31 00:00:00 15.5 -103.4 15.5 -103.4 15.5 -103.4
1996-07-31 06:00:00 16.0 -104.7 16.0 -104.7 16.0 -104.7
1996-07-31 12:00:00 16.5 -105.9 16.5 -105.9 16.5 -105.9
1996-07-31 18:00:00 17.0 -107.0 17.0 -107.0 17.0 -107.0
1996-08-01 00:00:00 17.6 -108.0 17.6 -108.0 17.6 -108.0
1996-08-01 06:00:00 18.2 -109.0 18.2 -109.0 18.2 -109.0
1996-08-01 12:00:00 18.9 -110.0 18.9 -110.0 18.9 -110.0
1996-08-01 18:00:00 19.5 -111.2 19.5 -111.2 19.5 -111.2
1996-08-02 00:00:00 20.0 -112.6 20.0 -112.6 20.0 -112.6
1996-08-02 06:00:00 20.4 -113.9 20.4 -113.9 20.4 -113.9
1996-08-02 12:00:00 20.6 -115.4 20.6 -115.4 20.6 -115.4
1996-08-02 18:00:00 20.8 -116.8 20.8 -116.8 20.8 -116.8
1996-08-03 00:00:00 20.9 -118.1 20.9 -118.1 20.9 -118.1
1996-08-03 06:00:00 21.1 -119.3 21.1 -119.3 21.1 -119.3
1996-08-03 12:00:00 21.1 -120.3 21.1 -120.3 21.1 -120.3
1996-08-03 18:00:00 21.2 -121.3 21.2 -121.3 21.2 -121.3
1996-08-04 00:00:00 21.4 -122.3 21.4 -122.3 21.4 -122.3
hurdat_epa jtwc_ep atcf
1996-08-04 06:00:00 21.6 -123.2 21.6 -123.2 21.6 -123.2
1996-08-04 12:00:00 21.7 -124.2 21.7 -124.2 21.7 -124.2
1996-08-04 18:00:00 21.9 -125.3 21.9 -125.3 21.9 -125.3
1996-08-05 00:00:00 22.1 -126.4 22.1 -126.4 22.1 -126.4
1996-08-05 06:00:00 22.3 -127.5 22.3 -127.5 22.3 -127.5
1996-08-05 12:00:00 22.4 -128.7 22.4 -128.7 22.4 -128.7
1996-08-05 18:00:00 22.5 -129.9 22.5 -129.9 22.5 -129.9
1996-08-06 00:00:00 22.5 -130.0 22.5 -130.0 22.5 -130.0

top of pageTrack Data:Intensity

hurdat_epa jtwc_ep atcf
Date Wind Pres Wind Pres Wind Pres
1996-07-29 00:00:00 35. 1004. 35. 35. 1004.
1996-07-29 06:00:00 40. 1001. 40. 40. 1001.
1996-07-29 12:00:00 65. 987. 65. 65. 987.
1996-07-29 18:00:00 65. 982. 65. 65. 982.
1996-07-30 00:00:00 70. 980. 70. 70. 980.
1996-07-30 06:00:00 75. 977. 75. 75. 977.
1996-07-30 12:00:00 80. 975. 80. 80. 975.
1996-07-30 18:00:00 85. 970. 85. 85. 970.
1996-07-31 00:00:00 90. 968. 90. 90. 968.
1996-07-31 06:00:00 95. 965. 95. 95. 965.
1996-07-31 12:00:00 100. 960. 100. 100. 960.
1996-07-31 18:00:00 105. 958. 105. 105. 958.
1996-08-01 00:00:00 115. 952. 115. 115. 952.
1996-08-01 06:00:00 115. 948. 115. 115. 948.
1996-08-01 12:00:00 115. 946. 115. 115. 946.
1996-08-01 18:00:00 115. 947. 115. 115. 947.
1996-08-02 00:00:00 115. 948. 115. 115. 948.
1996-08-02 06:00:00 115. 950. 115. 115. 950.
1996-08-02 12:00:00 110. 955. 110. 110. 955.
1996-08-02 18:00:00 100. 965. 100. 100. 965.
1996-08-03 00:00:00 80. 970. 80. 80. 970.
1996-08-03 06:00:00 65. 975. 65. 65. 975.
1996-08-03 12:00:00 60. 980. 60. 60. 980.
1996-08-03 18:00:00 55. 988. 55. 55. 988.
1996-08-04 00:00:00 50. 993. 50. 50. 993.
hurdat_epa jtwc_ep atcf
1996-08-04 06:00:00 45. 995. 45. 45. 995.
1996-08-04 12:00:00 40. 1000. 40. 40. 1000.
1996-08-04 18:00:00 35. 1003. 35. 35. 1003.
1996-08-05 00:00:00 30. 1005. 30. 30. 1005.
1996-08-05 06:00:00 30. 1009. 30. 30. 1009.
1996-08-05 12:00:00 30. 1009. 30. 30. 1009.
1996-08-05 18:00:00 25. 1009. 25. 25. 1009.
1996-08-06 00:00:00 20. 1009. 20. 20. 1009.

top of page Links to source data

Source Source file Format
hurdat_epa tracks1949to2011_epa.html:658:DOUGLAS HURDAT
jtwc_ep bep071996.txt ATCF
atcf bep071996.dat ATCF